Terminal Aerodrome Forecast
Issued by NWS

Home | Current Version | Previous Version | Text Only | Print | Product List | Glossary On
Versions: 1 2 3 4 5 6 7 8 9 10 11 12 13 14 15 16 17 18 19 20 21 22 23 24 25 26 27 28 29 30 31 32
000
FTAK31 PAFA 261738
TAFAOM
TAF
PAOM 261738Z 2618/2718 15005KT 6SM -RA BR BKN005 OVC010
      TEMPO 2620/2624 BKN010 OVC020
     FM270600 22009KT P6SM SCT007 OVC010
     FM271000 21006KT 4SM BR OVC007=

USA.gov is the U.S. government's official web portal to all federal, state and local government web resources and services.